sensor_id;sensor_type;location;lat;lon;timestamp;P1;durP1;ratioP1;P2;durP2;ratioP2
29206;SDS011;16247;50.840;4.382;2023-06-05T00:00:51;7.95;;;2.80;;
29206;SDS011;16247;50.840;4.382;2023-06-05T00:03:23;8.85;;;3.00;;
29206;SDS011;16247;50.840;4.382;2023-06-05T00:05:58;6.22;;;2.88;;
29206;SDS011;16247;50.840;4.382;2023-06-05T00:08:26;7.20;;;3.05;;
29206;SDS011;16247;50.840;4.382;2023-06-05T00:14:15;5.43;;;2.92;;
29206;SDS011;16247;50.840;4.382;2023-06-05T00:23:17;5.75;;;2.90;;
29206;SDS011;16247;50.840;4.382;2023-06-05T00:25:44;5.72;;;2.95;;
29206;SDS011;16247;50.840;4.382;2023-06-05T00:28:11;5.38;;;3.30;;
29206;SDS011;16247;50.840;4.382;2023-06-05T00:30:37;6.63;;;2.50;;
29206;SDS011;16247;50.840;4.382;2023-06-05T00:33:04;8.90;;;3.20;;
29206;SDS011;16247;50.840;4.382;2023-06-05T00:38:01;6.78;;;2.95;;
29206;SDS011;16247;50.840;4.382;2023-06-05T00:40:38;6.25;;;3.17;;
29206;SDS011;16247;50.840;4.382;2023-06-05T00:43:05;7.75;;;3.10;;
29206;SDS011;16247;50.840;4.382;2023-06-05T00:45:31;7.93;;;3.05;;
29206;SDS011;16247;50.840;4.382;2023-06-05T00:47:58;8.98;;;3.80;;
29206;SDS011;16247;50.840;4.382;2023-06-05T00:50:30;7.00;;;3.00;;
29206;SDS011;16247;50.840;4.382;2023-06-05T00:53:07;7.13;;;3.20;;
29206;SDS011;16247;50.840;4.382;2023-06-05T01:01:10;4.93;;;3.22;;
29206;SDS011;16247;50.840;4.382;2023-06-05T01:03:55;6.72;;;3.45;;
29206;SDS011;16247;50.840;4.382;2023-06-05T01:06:32;4.57;;;3.30;;
29206;SDS011;16247;50.840;4.382;2023-06-05T01:09:01;8.02;;;3.55;;
29206;SDS011;16247;50.840;4.382;2023-06-05T01:11:45;6.20;;;3.47;;
29206;SDS011;16247;50.840;4.382;2023-06-05T01:14:47;6.10;;;2.92;;
29206;SDS011;16247;50.840;4.382;2023-06-05T01:17:24;6.35;;;3.45;;
29206;SDS011;16247;50.840;4.382;2023-06-05T01:19:54;8.38;;;3.35;;
29206;SDS011;16247;50.840;4.382;2023-06-05T01:22:26;8.57;;;3.72;;
29206;SDS011;16247;50.840;4.382;2023-06-05T01:25:11;9.20;;;4.03;;
29206;SDS011;16247;50.840;4.382;2023-06-05T01:27:54;6.45;;;3.63;;
29206;SDS011;16247;50.840;4.382;2023-06-05T01:30:55;6.28;;;3.15;;
29206;SDS011;16247;50.840;4.382;2023-06-05T01:33:49;7.53;;;3.50;;
29206;SDS011;16247;50.840;4.382;2023-06-05T01:36:26;10.15;;;3.40;;
29206;SDS011;16247;50.840;4.382;2023-06-05T01:38:58;6.55;;;3.33;;
29206;SDS011;16247;50.840;4.382;2023-06-05T01:41:51;4.75;;;3.15;;
29206;SDS011;16247;50.840;4.382;2023-06-05T01:44:21;7.47;;;3.28;;
29206;SDS011;16247;50.840;4.382;2023-06-05T01:46:54;6.22;;;3.70;;
29206;SDS011;16247;50.840;4.382;2023-06-05T01:49:22;4.35;;;2.90;;
29206;SDS011;16247;50.840;4.382;2023-06-05T01:54:48;6.63;;;3.63;;
29206;SDS011;16247;50.840;4.382;2023-06-05T01:57:34;8.80;;;3.78;;
29206;SDS011;16247;50.840;4.382;2023-06-05T02:00:02;9.68;;;3.78;;
29206;SDS011;16247;50.840;4.382;2023-06-05T02:02:39;10.68;;;3.92;;
29206;SDS011;16247;50.840;4.382;2023-06-05T02:05:19;8.75;;;3.70;;
29206;SDS011;16247;50.840;4.382;2023-06-05T02:07:49;7.40;;;3.78;;
29206;SDS011;16247;50.840;4.382;2023-06-05T02:13:28;7.65;;;4.03;;
29206;SDS011;16247;50.840;4.382;2023-06-05T02:16:04;7.53;;;3.80;;
29206;SDS011;16247;50.840;4.382;2023-06-05T02:18:52;8.85;;;4.20;;
29206;SDS011;16247;50.840;4.382;2023-06-05T02:21:45;8.98;;;4.32;;
29206;SDS011;16247;50.840;4.382;2023-06-05T02:24:34;8.40;;;4.47;;
29206;SDS011;16247;50.840;4.382;2023-06-05T02:27:31;10.02;;;4.32;;
29206;SDS011;16247;50.840;4.382;2023-06-05T02:30:09;6.85;;;4.13;;
29206;SDS011;16247;50.840;4.382;2023-06-05T02:32:36;9.35;;;3.92;;
29206;SDS011;16247;50.840;4.382;2023-06-05T02:35:13;11.32;;;4.30;;
29206;SDS011;16247;50.840;4.382;2023-06-05T02:37:43;4.07;;;3.13;;
29206;SDS011;16247;50.840;4.382;2023-06-05T02:40:27;8.05;;;4.72;;
29206;SDS011;16247;50.840;4.382;2023-06-05T02:42:55;6.68;;;4.20;;
29206;SDS011;16247;50.840;4.382;2023-06-05T02:45:26;5.88;;;3.65;;
29206;SDS011;16247;50.840;4.382;2023-06-05T02:50:24;8.95;;;3.90;;
29206;SDS011;16247;50.840;4.382;2023-06-05T02:55:26;12.00;;;4.50;;
29206;SDS011;16247;50.840;4.382;2023-06-05T03:04:12;8.95;;;4.63;;
29206;SDS011;16247;50.840;4.382;2023-06-05T03:13:02;11.13;;;4.38;;
29206;SDS011;16247;50.840;4.382;2023-06-05T03:15:41;8.55;;;4.72;;
29206;SDS011;16247;50.840;4.382;2023-06-05T03:24:21;6.60;;;4.57;;
29206;SDS011;16247;50.840;4.382;2023-06-05T03:30:11;7.72;;;4.85;;
29206;SDS011;16247;50.840;4.382;2023-06-05T03:32:44;9.75;;;4.45;;
29206;SDS011;16247;50.840;4.382;2023-06-05T03:41:21;12.18;;;5.18;;
29206;SDS011;16247;50.840;4.382;2023-06-05T03:47:20;6.60;;;4.97;;
29206;SDS011;16247;50.840;4.382;2023-06-05T03:52:55;10.82;;;4.75;;
29206;SDS011;16247;50.840;4.382;2023-06-05T04:04:22;10.43;;;4.93;;
29206;SDS011;16247;50.840;4.382;2023-06-05T04:15:01;7.60;;;5.13;;
29206;SDS011;16247;50.840;4.382;2023-06-05T04:17:40;10.35;;;5.35;;
29206;SDS011;16247;50.840;4.382;2023-06-05T04:23:45;9.13;;;5.05;;
29206;SDS011;16247;50.840;4.382;2023-06-05T04:29:52;9.90;;;5.72;;
29206;SDS011;16247;50.840;4.382;2023-06-05T04:37:59;11.30;;;5.65;;
29206;SDS011;16247;50.840;4.382;2023-06-05T04:43:47;10.43;;;5.47;;
29206;SDS011;16247;50.840;4.382;2023-06-05T04:52:28;8.70;;;6.15;;
29206;SDS011;16247;50.840;4.382;2023-06-05T04:55:40;12.23;;;7.78;;
29206;SDS011;16247;50.840;4.382;2023-06-05T05:06:26;9.43;;;6.18;;
29206;SDS011;16247;50.840;4.382;2023-06-05T05:11:38;9.02;;;6.50;;
29206;SDS011;16247;50.840;4.382;2023-06-05T05:14:04;9.95;;;6.78;;
29206;SDS011;16247;50.840;4.382;2023-06-05T05:16:30;11.05;;;7.88;;
29206;SDS011;16247;50.840;4.382;2023-06-05T05:18:56;10.60;;;6.40;;
29206;SDS011;16247;50.840;4.382;2023-06-05T05:21:22;11.60;;;7.53;;
29206;SDS011;16247;50.840;4.382;2023-06-05T05:23:48;11.23;;;6.97;;
29206;SDS011;16247;50.840;4.382;2023-06-05T05:26:13;7.07;;;5.68;;
29206;SDS011;16247;50.840;4.382;2023-06-05T05:28:39;11.18;;;6.40;;
29206;SDS011;16247;50.840;4.382;2023-06-05T05:31:05;9.55;;;6.30;;
29206;SDS011;16247;50.840;4.382;2023-06-05T05:33:32;9.30;;;5.72;;
29206;SDS011;16247;50.840;4.382;2023-06-05T05:35:57;10.43;;;5.97;;
29206;SDS011;16247;50.840;4.382;2023-06-05T05:38:23;11.68;;;6.15;;
29206;SDS011;16247;50.840;4.382;2023-06-05T05:46:27;12.57;;;6.38;;
29206;SDS011;16247;50.840;4.382;2023-06-05T05:49:30;10.38;;;6.57;;
29206;SDS011;16247;50.840;4.382;2023-06-05T05:55:03;11.20;;;7.10;;
29206;SDS011;16247;50.840;4.382;2023-06-05T05:57:33;9.88;;;6.55;;
29206;SDS011;16247;50.840;4.382;2023-06-05T06:06:03;12.30;;;7.10;;
29206;SDS011;16247;50.840;4.382;2023-06-05T06:11:55;17.25;;;8.10;;
29206;SDS011;16247;50.840;4.382;2023-06-05T06:14:27;13.70;;;8.07;;
29206;SDS011;16247;50.840;4.382;2023-06-05T06:17:05;14.93;;;7.63;;
29206;SDS011;16247;50.840;4.382;2023-06-05T06:19:39;13.15;;;7.47;;
29206;SDS011;16247;50.840;4.382;2023-06-05T06:22:34;12.52;;;7.57;;
29206;SDS011;16247;50.840;4.382;2023-06-05T06:25:05;15.02;;;8.75;;
29206;SDS011;16247;50.840;4.382;2023-06-05T06:27:40;11.20;;;8.00;;
29206;SDS011;16247;50.840;4.382;2023-06-05T06:30:51;14.98;;;7.65;;
29206;SDS011;16247;50.840;4.382;2023-06-05T06:33:22;13.15;;;8.05;;
29206;SDS011;16247;50.840;4.382;2023-06-05T06:35:52;13.63;;;9.32;;
29206;SDS011;16247;50.840;4.382;2023-06-05T06:38:36;13.57;;;7.25;;
29206;SDS011;16247;50.840;4.382;2023-06-05T06:41:03;16.70;;;7.00;;
29206;SDS011;16247;50.840;4.382;2023-06-05T06:43:32;15.60;;;7.43;;
29206;SDS011;16247;50.840;4.382;2023-06-05T06:46:15;14.48;;;7.75;;
29206;SDS011;16247;50.840;4.382;2023-06-05T06:48:43;12.52;;;7.70;;
29206;SDS011;16247;50.840;4.382;2023-06-05T06:54:07;12.45;;;8.75;;
29206;SDS011;16247;50.840;4.382;2023-06-05T06:56:39;17.25;;;7.18;;
29206;SDS011;16247;50.840;4.382;2023-06-05T06:59:14;13.38;;;8.52;;
29206;SDS011;16247;50.840;4.382;2023-06-05T07:01:46;18.08;;;8.48;;
29206;SDS011;16247;50.840;4.382;2023-06-05T07:04:18;15.30;;;8.23;;
29206;SDS011;16247;50.840;4.382;2023-06-05T07:07:25;13.63;;;8.50;;
29206;SDS011;16247;50.840;4.382;2023-06-05T07:09:59;12.98;;;8.10;;
29206;SDS011;16247;50.840;4.382;2023-06-05T07:12:27;16.92;;;9.20;;
29206;SDS011;16247;50.840;4.382;2023-06-05T07:14:58;12.50;;;8.33;;
29206;SDS011;16247;50.840;4.382;2023-06-05T07:17:48;16.67;;;8.60;;
29206;SDS011;16247;50.840;4.382;2023-06-05T07:23:37;11.85;;;8.05;;
29206;SDS011;16247;50.840;4.382;2023-06-05T12:56:11;3.78;;;2.63;;
29206;SDS011;16247;50.840;4.382;2023-06-05T13:01:16;6.38;;;2.88;;
29206;SDS011;16247;50.840;4.382;2023-06-05T13:09:53;6.32;;;3.08;;
29206;SDS011;16247;50.840;4.382;2023-06-05T13:21:59;12.55;;;3.50;;
29206;SDS011;16247;50.840;4.382;2023-06-05T13:24:27;7.03;;;3.03;;
29206;SDS011;16247;50.840;4.382;2023-06-05T13:26:57;8.18;;;3.67;;
29206;SDS011;16247;50.840;4.382;2023-06-05T13:29:37;7.50;;;3.42;;
29206;SDS011;16247;50.840;4.382;2023-06-05T13:37:20;10.52;;;3.45;;
29206;SDS011;16247;50.840;4.382;2023-06-05T13:39:52;6.88;;;3.78;;
29206;SDS011;16247;50.840;4.382;2023-06-05T13:42:25;4.82;;;2.90;;
29206;SDS011;16247;50.840;4.382;2023-06-05T13:47:25;8.02;;;3.53;;
29206;SDS011;16247;50.840;4.382;2023-06-05T13:52:33;8.07;;;3.88;;
29206;SDS011;16247;50.840;4.382;2023-06-05T13:55:15;6.95;;;3.53;;
29206;SDS011;16247;50.840;4.382;2023-06-05T13:57:43;7.43;;;3.83;;
29206;SDS011;16247;50.840;4.382;2023-06-05T14:00:12;9.68;;;3.17;;
29206;SDS011;16247;50.840;4.382;2023-06-05T14:02:40;6.45;;;3.67;;
29206;SDS011;16247;50.840;4.382;2023-06-05T14:05:37;4.63;;;3.50;;
29206;SDS011;16247;50.840;4.382;2023-06-05T14:08:11;12.35;;;4.32;;
29206;SDS011;16247;50.840;4.382;2023-06-05T14:14:03;6.20;;;3.80;;
29206;SDS011;16247;50.840;4.382;2023-06-05T14:16:31;11.60;;;3.88;;
29206;SDS011;16247;50.840;4.382;2023-06-05T14:18:58;5.82;;;3.60;;
29206;SDS011;16247;50.840;4.382;2023-06-05T14:21:25;7.25;;;3.80;;
29206;SDS011;16247;50.840;4.382;2023-06-05T14:24:03;8.95;;;4.47;;
29206;SDS011;16247;50.840;4.382;2023-06-05T14:26:32;6.43;;;3.83;;
29206;SDS011;16247;50.840;4.382;2023-06-05T14:29:28;8.75;;;3.58;;
29206;SDS011;16247;50.840;4.382;2023-06-05T15:21:39;9.02;;;3.63;;
29206;SDS011;16247;50.840;4.382;2023-06-05T15:24:50;5.80;;;4.35;;
29206;SDS011;16247;50.840;4.382;2023-06-05T15:51:54;8.93;;;4.30;;
29206;SDS011;16247;50.840;4.382;2023-06-05T16:37:44;6.30;;;3.90;;
29206;SDS011;16247;50.840;4.382;2023-06-05T16:40:49;6.70;;;4.15;;
29206;SDS011;16247;50.840;4.382;2023-06-05T16:54:37;13.57;;;4.88;;
29206;SDS011;16247;50.840;4.382;2023-06-05T16:57:14;8.13;;;4.43;;
29206;SDS011;16247;50.840;4.382;2023-06-05T17:05:37;9.25;;;5.63;;
29206;SDS011;16247;50.840;4.382;2023-06-05T17:08:23;9.02;;;4.93;;
29206;SDS011;16247;50.840;4.382;2023-06-05T17:10:57;7.88;;;4.93;;
29206;SDS011;16247;50.840;4.382;2023-06-05T17:16:04;8.07;;;4.53;;
29206;SDS011;16247;50.840;4.382;2023-06-05T17:18:33;9.70;;;5.30;;
29206;SDS011;16247;50.840;4.382;2023-06-05T17:21:05;8.48;;;4.30;;
29206;SDS011;16247;50.840;4.382;2023-06-05T17:23:37;7.47;;;4.43;;
29206;SDS011;16247;50.840;4.382;2023-06-05T17:26:12;11.35;;;5.63;;
29206;SDS011;16247;50.840;4.382;2023-06-05T17:28:50;12.00;;;4.95;;
29206;SDS011;16247;50.840;4.382;2023-06-05T17:31:24;10.68;;;5.28;;
29206;SDS011;16247;50.840;4.382;2023-06-05T17:33:51;6.22;;;5.40;;
29206;SDS011;16247;50.840;4.382;2023-06-05T17:36:18;7.53;;;4.82;;
29206;SDS011;16247;50.840;4.382;2023-06-05T17:39:16;6.78;;;4.78;;
29206;SDS011;16247;50.840;4.382;2023-06-05T17:41:51;7.95;;;4.97;;
29206;SDS011;16247;50.840;4.382;2023-06-05T17:44:47;7.93;;;4.20;;
29206;SDS011;16247;50.840;4.382;2023-06-05T17:47:32;13.82;;;4.95;;
29206;SDS011;16247;50.840;4.382;2023-06-05T17:50:00;11.63;;;5.57;;
29206;SDS011;16247;50.840;4.382;2023-06-05T17:52:41;9.38;;;5.00;;
29206;SDS011;16247;50.840;4.382;2023-06-05T17:55:12;7.28;;;4.70;;
29206;SDS011;16247;50.840;4.382;2023-06-05T17:57:39;12.32;;;5.63;;
29206;SDS011;16247;50.840;4.382;2023-06-05T18:00:06;6.20;;;4.13;;
29206;SDS011;16247;50.840;4.382;2023-06-05T18:05:03;9.18;;;4.43;;
29206;SDS011;16247;50.840;4.382;2023-06-05T18:07:30;8.60;;;5.00;;
29206;SDS011;16247;50.840;4.382;2023-06-05T18:09:57;9.60;;;4.53;;
29206;SDS011;16247;50.840;4.382;2023-06-05T18:12:26;9.60;;;5.10;;
29206;SDS011;16247;50.840;4.382;2023-06-05T18:14:58;7.50;;;5.00;;
29206;SDS011;16247;50.840;4.382;2023-06-05T18:17:26;9.40;;;5.13;;
29206;SDS011;16247;50.840;4.382;2023-06-05T18:20:05;7.00;;;4.97;;
29206;SDS011;16247;50.840;4.382;2023-06-05T18:22:39;7.03;;;4.65;;
29206;SDS011;16247;50.840;4.382;2023-06-05T18:25:09;7.78;;;4.45;;
29206;SDS011;16247;50.840;4.382;2023-06-05T18:30:18;6.88;;;4.78;;
29206;SDS011;16247;50.840;4.382;2023-06-05T18:33:06;8.15;;;4.57;;
29206;SDS011;16247;50.840;4.382;2023-06-05T18:35:42;10.43;;;4.97;;
29206;SDS011;16247;50.840;4.382;2023-06-05T18:38:10;10.13;;;4.90;;
29206;SDS011;16247;50.840;4.382;2023-06-05T18:40:38;10.40;;;4.35;;
29206;SDS011;16247;50.840;4.382;2023-06-05T18:43:09;9.50;;;5.28;;
29206;SDS011;16247;50.840;4.382;2023-06-05T18:45:38;6.85;;;5.00;;
29206;SDS011;16247;50.840;4.382;2023-06-05T18:48:29;13.35;;;4.60;;
29206;SDS011;16247;50.840;4.382;2023-06-05T18:51:04;6.97;;;4.43;;
29206;SDS011;16247;50.840;4.382;2023-06-05T18:53:34;7.22;;;4.75;;
29206;SDS011;16247;50.840;4.382;2023-06-05T18:58:39;6.82;;;3.95;;
29206;SDS011;16247;50.840;4.382;2023-06-05T19:01:07;6.03;;;4.32;;
29206;SDS011;16247;50.840;4.382;2023-06-05T19:03:33;9.70;;;5.35;;
29206;SDS011;16247;50.840;4.382;2023-06-05T19:06:36;9.65;;;4.68;;
29206;SDS011;16247;50.840;4.382;2023-06-05T19:09:09;5.53;;;4.65;;
29206;SDS011;16247;50.840;4.382;2023-06-05T19:11:59;10.45;;;4.57;;
29206;SDS011;16247;50.840;4.382;2023-06-05T19:14:25;7.47;;;4.20;;
29206;SDS011;16247;50.840;4.382;2023-06-05T19:19:22;9.18;;;4.72;;
29206;SDS011;16247;50.840;4.382;2023-06-05T19:21:57;11.10;;;5.35;;
29206;SDS011;16247;50.840;4.382;2023-06-05T19:24:29;14.07;;;6.20;;
29206;SDS011;16247;50.840;4.382;2023-06-05T19:26:57;14.27;;;6.22;;
29206;SDS011;16247;50.840;4.382;2023-06-05T19:29:28;13.30;;;6.82;;
29206;SDS011;16247;50.840;4.382;2023-06-05T19:32:03;15.32;;;5.63;;
29206;SDS011;16247;50.840;4.382;2023-06-05T19:34:33;11.93;;;5.57;;
29206;SDS011;16247;50.840;4.382;2023-06-05T19:37:25;14.70;;;6.38;;
29206;SDS011;16247;50.840;4.382;2023-06-05T19:59:34;14.80;;;5.95;;
29206;SDS011;16247;50.840;4.382;2023-06-05T20:02:35;10.23;;;6.43;;
29206;SDS011;16247;50.840;4.382;2023-06-05T20:05:26;9.52;;;5.68;;
29206;SDS011;16247;50.840;4.382;2023-06-05T20:08:14;10.07;;;5.50;;
29206;SDS011;16247;50.840;4.382;2023-06-05T20:19:17;10.40;;;4.65;;
29206;SDS011;16247;50.840;4.382;2023-06-05T20:32:25;7.03;;;4.30;;
29206;SDS011;16247;50.840;4.382;2023-06-05T20:35:12;8.77;;;4.47;;
29206;SDS011;16247;50.840;4.382;2023-06-05T20:45:45;8.07;;;5.00;;
29206;SDS011;16247;50.840;4.382;2023-06-05T20:48:36;9.02;;;5.07;;
29206;SDS011;16247;50.840;4.382;2023-06-05T20:51:18;7.75;;;4.93;;
29206;SDS011;16247;50.840;4.382;2023-06-05T20:53:49;10.90;;;5.57;;
29206;SDS011;16247;50.840;4.382;2023-06-05T20:56:25;9.35;;;5.57;;
29206;SDS011;16247;50.840;4.382;2023-06-05T20:58:52;8.57;;;5.07;;
29206;SDS011;16247;50.840;4.382;2023-06-05T21:01:26;10.95;;;5.60;;
29206;SDS011;16247;50.840;4.382;2023-06-05T21:03:57;8.98;;;4.45;;
29206;SDS011;16247;50.840;4.382;2023-06-05T21:06:25;9.23;;;5.38;;
29206;SDS011;16247;50.840;4.382;2023-06-05T21:08:53;10.67;;;5.33;;
29206;SDS011;16247;50.840;4.382;2023-06-05T21:11:21;7.50;;;4.70;;
29206;SDS011;16247;50.840;4.382;2023-06-05T21:13:47;14.10;;;5.75;;
29206;SDS011;16247;50.840;4.382;2023-06-05T21:16:16;8.95;;;5.03;;
29206;SDS011;16247;50.840;4.382;2023-06-05T21:18:44;9.57;;;5.13;;
29206;SDS011;16247;50.840;4.382;2023-06-05T21:21:09;8.15;;;5.25;;
29206;SDS011;16247;50.840;4.382;2023-06-05T21:26:06;8.73;;;5.07;;
29206;SDS011;16247;50.840;4.382;2023-06-05T21:28:32;11.73;;;5.15;;
29206;SDS011;16247;50.840;4.382;2023-06-05T21:30:58;7.25;;;5.28;;
29206;SDS011;16247;50.840;4.382;2023-06-05T21:33:32;10.63;;;5.28;;
29206;SDS011;16247;50.840;4.382;2023-06-05T21:36:01;11.93;;;5.22;;
29206;SDS011;16247;50.840;4.382;2023-06-05T21:38:27;10.73;;;5.47;;
29206;SDS011;16247;50.840;4.382;2023-06-05T21:41:13;9.10;;;6.03;;
29206;SDS011;16247;50.840;4.382;2023-06-05T21:43:39;11.20;;;5.40;;
29206;SDS011;16247;50.840;4.382;2023-06-05T21:46:07;9.52;;;5.72;;
29206;SDS011;16247;50.840;4.382;2023-06-05T21:48:34;9.70;;;6.05;;
29206;SDS011;16247;50.840;4.382;2023-06-05T21:55:58;12.50;;;6.20;;
29206;SDS011;16247;50.840;4.382;2023-06-05T21:58:24;9.18;;;5.93;;
29206;SDS011;16247;50.840;4.382;2023-06-05T22:00:53;11.35;;;6.10;;
29206;SDS011;16247;50.840;4.382;2023-06-05T22:03:19;9.70;;;5.38;;
29206;SDS011;16247;50.840;4.382;2023-06-05T22:05:44;15.75;;;6.03;;
29206;SDS011;16247;50.840;4.382;2023-06-05T22:08:22;9.43;;;6.60;;
29206;SDS011;16247;50.840;4.382;2023-06-05T22:10:50;10.65;;;6.75;;
29206;SDS011;16247;50.840;4.382;2023-06-05T22:13:17;11.27;;;6.10;;
29206;SDS011;16247;50.840;4.382;2023-06-05T22:15:49;8.88;;;5.72;;
29206;SDS011;16247;50.840;4.382;2023-06-05T22:18:18;15.35;;;6.75;;
29206;SDS011;16247;50.840;4.382;2023-06-05T22:20:56;12.18;;;6.35;;
29206;SDS011;16247;50.840;4.382;2023-06-05T22:25:57;12.90;;;7.00;;
29206;SDS011;16247;50.840;4.382;2023-06-05T22:28:24;10.80;;;6.55;;
29206;SDS011;16247;50.840;4.382;2023-06-05T22:30:56;10.98;;;6.35;;
29206;SDS011;16247;50.840;4.382;2023-06-05T22:33:27;17.48;;;8.43;;
29206;SDS011;16247;50.840;4.382;2023-06-05T22:35:56;14.40;;;7.07;;
29206;SDS011;16247;50.840;4.382;2023-06-05T22:38:23;11.73;;;6.90;;
29206;SDS011;16247;50.840;4.382;2023-06-05T22:40:55;11.82;;;7.07;;
29206;SDS011;16247;50.840;4.382;2023-06-05T22:43:29;12.35;;;6.85;;
29206;SDS011;16247;50.840;4.382;2023-06-05T22:48:29;11.70;;;7.70;;
29206;SDS011;16247;50.840;4.382;2023-06-05T22:51:08;12.13;;;6.97;;
29206;SDS011;16247;50.840;4.382;2023-06-05T22:53:48;12.57;;;7.05;;
29206;SDS011;16247;50.840;4.382;2023-06-05T22:56:13;11.55;;;7.60;;
29206;SDS011;16247;50.840;4.382;2023-06-05T22:58:42;14.32;;;7.03;;
29206;SDS011;16247;50.840;4.382;2023-06-05T23:01:12;10.63;;;7.07;;
29206;SDS011;16247;50.840;4.382;2023-06-05T23:03:43;10.07;;;6.75;;
29206;SDS011;16247;50.840;4.382;2023-06-05T23:06:11;15.45;;;7.35;;
29206;SDS011;16247;50.840;4.382;2023-06-05T23:11:08;10.30;;;6.88;;
29206;SDS011;16247;50.840;4.382;2023-06-05T23:13:35;12.25;;;7.07;;
29206;SDS011;16247;50.840;4.382;2023-06-05T23:16:04;10.98;;;7.10;;
29206;SDS011;16247;50.840;4.382;2023-06-05T23:18:50;14.70;;;7.93;;
29206;SDS011;16247;50.840;4.382;2023-06-05T23:23:55;13.40;;;8.15;;
29206;SDS011;16247;50.840;4.382;2023-06-05T23:26:24;13.80;;;8.13;;
29206;SDS011;16247;50.840;4.382;2023-06-05T23:28:51;16.10;;;8.93;;
29206;SDS011;16247;50.840;4.382;2023-06-05T23:31:24;14.75;;;8.52;;
29206;SDS011;16247;50.840;4.382;2023-06-05T23:33:55;14.93;;;8.13;;
29206;SDS011;16247;50.840;4.382;2023-06-05T23:36:21;13.77;;;8.57;;
29206;SDS011;16247;50.840;4.382;2023-06-05T23:38:48;16.08;;;8.95;;
29206;SDS011;16247;50.840;4.382;2023-06-05T23:41:16;17.35;;;8.82;;
29206;SDS011;16247;50.840;4.382;2023-06-05T23:43:43;15.30;;;8.60;;
29206;SDS011;16247;50.840;4.382;2023-06-05T23:46:08;16.25;;;8.57;;
29206;SDS011;16247;50.840;4.382;2023-06-05T23:48:43;16.90;;;8.73;;
29206;SDS011;16247;50.840;4.382;2023-06-05T23:51:11;17.10;;;8.65;;
29206;SDS011;16247;50.840;4.382;2023-06-05T23:56:08;12.98;;;8.27;;
29206;SDS011;16247;50.840;4.382;2023-06-05T23:58:41;17.30;;;8.55;;
